Airport ID:CYTF
Update Time (UTC):25/10/2021 15:43
Wind Speed (Knots):3
Wind Direction (Magnetic):350
Temperature (°C):6.3
Dew Point (°C):3.2
Humidity (%):81
Altimeter (inHg):30.2
Density Altitude (Feet):\\\\
Visibility (Miles):6
Clouds (Hundreds of feet):BKN012 OVC020
Present Weather:
METAR:METAR CYTF 251530Z AUTO 32003KT 10SM BKN011 BKN015 OVC020 06/03 A3019

The data displayed is for advisory purposes only and is not to be used for flight planning or operations.

This page is not automatically refreshed. Reload the page to see current data.